Record high temperature 35.2°C Record low temperature -28.5°C Record high gust 73.6 km/h Record high average 52.2 km/h Record daily rain 78.0 mm Record low windchill -39.6°C Record high barometer 1045.2 hPa Record low barometer 973.0 hPa
Daily high pressure 1018 hPa Daily low pressure 1016 hPa Daily low windchill 18.2°C Daily high heat index 22.5°C Daily high gust speed 15.5 kmh W Daily high average speed 7.2 kmh WNW
Beaconsfield Home Weather Data WMR-968
LAST READING AT TIME: 11:50 DATE: August 30 2015, time of next update: 11:55
Current WeatherCloudy/Dry Current Temperature 22.4°C (72.3°F) (Heat Index 22.4°C ), Apparent temp 21.6°C , Apparent temp solar 26.0°C
Maximum Temperature (since midnight)22.5°C at: 11:35 Minimum Temperature (since midnight)18.2°C at: 05:52
Average windspeed (ten minute)3.3 kmh (1.8 kts) Wind Direction (ten minute)WSW (247°)
Windchill Temperature 22.4°C Maximum Gust (last hour)15.5 kmh (8.4 kts) at: 11:35
Maximum Gust (since midnight)15.5 kmh (8.4 kts) at: 11:35 Maximum 1 minute average (since midnight)7.2 kmh (3.9 kts) at: 11:08
Rainfall (last hour)0.0 mm Rainfall (since midnight)0.0 mm (0.00 in.)---
Rainfall This month 64.8 mm (2.55 in.) Rainfall To date this year 427.0 mm (16.81 in.)
Maximum rain per minute (last hour)0.0 mm/min Maximum rain per hour (last 6 hours)0.0 mm/hour
Yesterdays rainfall 0.0 mm DewPoint 6.2°C (Wet Bulb :14.1°C )
Humidity 35 %, Humidex 22.1°C Barometer corrected to msl1018 hPa
Pressure change 0 hPa (last hour) Trend (last hour)STEADY
Pressure change (last 12 hours)+0 hPa Pressure change (last 6 hours)+1 hPa
Current Indoor Temp. 23.7°C
Current Indoor Hum. 57%
Current 00:00 hours of sunshine today, current sky: Cloudy
Sunshine hours for the year: 51:16 hrs Sunshine hours for the month: 12:39 hrs
Current evapotranspiration rate 3.3 mm per day. Yesterday's reading 4.3




Weather report/warning/Metars

Montreal / Pierre Elliot Trudeau International Airport, Que, Canada (CYUL) 45-28N 073-45W 36M
Aug 30, 2015 - 11:00 AM EDT / 2015.08.30 1500 UTC
Wind: from the W (260 degrees) at 13 MPH (11 KT):0
Visibility: 15 mile(s):0
Sky conditions: mostly cloudy
Temperature: 71 F (22 C)
Dew Point: 60 F (16 C)
Relative Humidity: 68%
Pressure (altimeter): 30.06 in. Hg (1017 hPa)
ob: CYUL 301500Z 26011KT 15SM SCT028 BKN240 22/16 A3006 RMK CU4CI1 SLP180 DENSITY ALT 700FT
cycle: 15
Sherbrooke, Que., Canada (CYSC) 45-24N 071-53W
Aug 30, 2015 - 11:42 AM EDT / 2015.08.30 1542 UTC
Wind: from the WSW (250 degrees) at 10 MPH (9 KT):0
Visibility: 9 mile(s):0
Sky conditions: overcast
Temperature: 68 F (20 C)
Dew Point: 62 F (17 C)
Relative Humidity: 82%
Pressure (altimeter): 30.06 in. Hg (1017 hPa)
ob: CYSC 301542Z AUTO 25009KT 9SM SCT015 OVC028 20/17 A3006 RMK SLP182 DENSITY ALT 1400FT
cycle: 15
St Jovite Automatic Weather Reporting System , Canada (CWJT) 46-04N 074-32W
Aug 30, 2015 - 11:00 AM EDT / 2015.08.30 1500 UTC
Wind: from the SW (230 degrees) at 2 MPH (2 KT):0
Temperature: 66.9 F (19.4 C)
Dew Point: 64.0 F (17.8 C)
Relative Humidity: 90%
Pressure tendency: 0.01 inches (0.5 hPa) higher than three hours ago
ob: CWJT 301500Z AUTO 23002KT 19/18 RMK AO1 SLP179 T01940178 51005
cycle: 15
Ste Anne De Bell 1, Canada (CWVQ) 45-26N 073-56W
Aug 30, 2015 - 11:00 AM EDT / 2015.08.30 1500 UTC
Wind: from the W (270 degrees) at 6 MPH (5 KT):0
Temperature: 71.2 F (21.8 C)
Dew Point: 64.0 F (17.8 C)
Relative Humidity: 78%
Pressure tendency: 0.00 inches (0.1 hPa) higher than three hours ago
ob: CWVQ 301500Z AUTO 27005KT 22/18 RMK AO1 SLP180 T02180178 50001
cycle: 15
Montreal / Mirabel, Canada (CYMX) 45-41N 074-02W
Aug 30, 2015 - 11:00 AM EDT / 2015.08.30 1500 UTC
Wind: from the SW (230 degrees) at 7 MPH (6 KT) (direction variable):0
Visibility: 15 mile(s):0
Sky conditions: mostly cloudy
Temperature: 71 F (22 C)
Dew Point: 62 F (17 C)
Relative Humidity: 73%
Pressure (altimeter): 30.07 in. Hg (1018 hPa)
ob: CYMX 301500Z 23006KT 190V300 15SM BKN032 BKN180 22/17 A3007 RMK SC5AC2 SLP184 DENSITY ALT 900FT
cycle: 15
L'Acadie, Canada (CWIZ) 45-18N 073-21W
Aug 30, 2015 - 11:00 AM EDT / 2015.08.30 1500 UTC
Wind: from the WSW (240 degrees) at 8 MPH (7 KT):0
Temperature: 71.2 F (21.8 C)
Dew Point: 62.4 F (16.9 C)
Relative Humidity: 73%
ob: CWIZ 301500Z AUTO 24007KT 22/17 RMK AO1 T02180169
cycle: 15
St Anicet, Canada (CWBZ) 45-07N 074-17W 49M
Aug 30, 2015 - 11:00 AM EDT / 2015.08.30 1500 UTC
Wind: from the W (260 degrees) at 7 MPH (6 KT):0
Temperature: 73.9 F (23.3 C)
Dew Point: 64.0 F (17.8 C)
Relative Humidity: 71%
Pressure tendency: 0.01 inches (0.4 hPa) higher than three hours ago
ob: CWBZ 301500Z AUTO 26006KT 23/18 RMK AO1 SLP182 T02330178 51004
cycle: 15
Mount Washington, NH, United States (KMWN) 44-16N 071-18W 1910M
Aug 30, 2015 - 10:52 AM EDT / 2015.08.30 1452 UTC
Wind: from the WNW (300 degrees) at 26 MPH (23 KT):0
Visibility: 60 mile(s):0
Sky conditions: mostly cloudy
Temperature: 51 F (11 C)
Dew Point: 42 F (6 C)
Relative Humidity: 71%
ob: KMWN 301452Z 30023KT 60SM SCT/// FEW/// FEW070 BKN150 BKN170 11/06 RMK ACSL E TPS LWR SCT040 BBLO FEW NE AND W
cycle: 15
Vancouver International Air-Port, B. C., Canada (CYVR) 49-11N 123-10W 2M
Aug 30, 2015 - 11:00 AM EDT / 2015.08.30 1500 UTC
Wind: from the SSE (150 degrees) at 10 MPH (9 KT):0
Visibility: 12 mile(s):0
Sky conditions: mostly cloudy
Weather: Towering cumulus clouds observed
Temperature: 57 F (14 C)
Dew Point: 53 F (12 C)
Relative Humidity: 87%
Pressure (altimeter): 29.79 in. Hg (1008 hPa)
ob: CYVR 301500Z 15009KT 12SM FEW008 SCT050 BKN080 14/12 A2979 RMK CF1SC3AC2 TCU ASOCT SLP088
cycle: 15



The data is logged at two minute intervals, but there is data recorded every minute.

Use the RELOAD facility on your browser to retrieve the latest data.

Click here for a daily update of the averages/extremes to date for the month

Click here for Real Time Weather



Created by "Weather Display" software version 10.37R Build 51 at this start time/date 21:48 2015-08-12